sensor_id;sensor_type;location;lat;lon;timestamp;P1;durP1;ratioP1;P2;durP2;ratioP2
9934;SDS011;5006;41.828;23.478;2023-04-15T00:00:36;3.10;;;2.10;;
9934;SDS011;5006;41.828;23.478;2023-04-15T00:02:04;2.00;;;1.75;;
9934;SDS011;5006;41.828;23.478;2023-04-15T00:03:17;2.90;;;1.85;;
9934;SDS011;5006;41.828;23.478;2023-04-15T00:04:23;2.70;;;1.95;;
9934;SDS011;5006;41.828;23.478;2023-04-15T00:05:28;3.65;;;2.10;;
9934;SDS011;5006;41.828;23.478;2023-04-15T00:06:36;2.63;;;1.80;;
9934;SDS011;5006;41.828;23.478;2023-04-15T00:07:41;4.88;;;2.10;;
9934;SDS011;5006;41.828;23.478;2023-04-15T00:08:48;3.38;;;1.98;;
9934;SDS011;5006;41.828;23.478;2023-04-15T00:09:54;4.13;;;2.10;;
9934;SDS011;5006;41.828;23.478;2023-04-15T00:11:01;2.58;;;2.13;;
9934;SDS011;5006;41.828;23.478;2023-04-15T00:12:09;3.45;;;2.30;;
9934;SDS011;5006;41.828;23.478;2023-04-15T00:13:15;5.13;;;2.30;;
9934;SDS011;5006;41.828;23.478;2023-04-15T00:14:21;3.00;;;2.10;;
9934;SDS011;5006;41.828;23.478;2023-04-15T00:15:27;3.53;;;2.40;;
9934;SDS011;5006;41.828;23.478;2023-04-15T00:16:32;5.40;;;2.22;;
9934;SDS011;5006;41.828;23.478;2023-04-15T00:17:39;3.33;;;2.30;;
9934;SDS011;5006;41.828;23.478;2023-04-15T00:18:44;5.22;;;2.42;;
9934;SDS011;5006;41.828;23.478;2023-04-15T00:19:51;2.75;;;2.13;;
9934;SDS011;5006;41.828;23.478;2023-04-15T00:20:56;4.90;;;2.72;;
9934;SDS011;5006;41.828;23.478;2023-04-15T00:22:02;3.90;;;2.25;;
9934;SDS011;5006;41.828;23.478;2023-04-15T00:23:07;2.08;;;1.88;;
9934;SDS011;5006;41.828;23.478;2023-04-15T00:24:13;2.67;;;1.95;;
9934;SDS011;5006;41.828;23.478;2023-04-15T00:25:19;4.35;;;2.10;;
9934;SDS011;5006;41.828;23.478;2023-04-15T00:26:26;3.53;;;1.80;;
9934;SDS011;5006;41.828;23.478;2023-04-15T00:27:32;3.38;;;1.92;;
9934;SDS011;5006;41.828;23.478;2023-04-15T00:28:38;4.13;;;2.20;;
9934;SDS011;5006;41.828;23.478;2023-04-15T00:29:42;4.95;;;2.20;;
9934;SDS011;5006;41.828;23.478;2023-04-15T00:30:49;3.92;;;1.98;;
9934;SDS011;5006;41.828;23.478;2023-04-15T00:31:54;2.35;;;2.15;;
9934;SDS011;5006;41.828;23.478;2023-04-15T00:33:02;3.08;;;2.03;;
9934;SDS011;5006;41.828;23.478;2023-04-15T00:34:07;3.78;;;1.85;;
9934;SDS011;5006;41.828;23.478;2023-04-15T00:35:14;5.32;;;2.55;;
9934;SDS011;5006;41.828;23.478;2023-04-15T00:36:19;2.40;;;2.10;;
9934;SDS011;5006;41.828;23.478;2023-04-15T00:37:24;3.60;;;2.00;;
9934;SDS011;5006;41.828;23.478;2023-04-15T00:38:30;3.75;;;2.20;;
9934;SDS011;5006;41.828;23.478;2023-04-15T00:39:35;2.85;;;2.30;;
9934;SDS011;5006;41.828;23.478;2023-04-15T00:40:41;3.28;;;2.40;;
9934;SDS011;5006;41.828;23.478;2023-04-15T00:41:47;2.85;;;1.90;;
9934;SDS011;5006;41.828;23.478;2023-04-15T00:42:53;2.88;;;1.92;;
9934;SDS011;5006;41.828;23.478;2023-04-15T00:43:58;3.78;;;2.10;;
9934;SDS011;5006;41.828;23.478;2023-04-15T00:45:06;5.72;;;2.17;;
9934;SDS011;5006;41.828;23.478;2023-04-15T00:46:12;2.90;;;2.00;;
9934;SDS011;5006;41.828;23.478;2023-04-15T00:47:24;3.78;;;2.03;;
9934;SDS011;5006;41.828;23.478;2023-04-15T00:48:34;2.35;;;2.15;;
9934;SDS011;5006;41.828;23.478;2023-04-15T00:49:41;5.43;;;2.45;;
9934;SDS011;5006;41.828;23.478;2023-04-15T00:50:46;3.17;;;2.13;;
9934;SDS011;5006;41.828;23.478;2023-04-15T00:51:53;3.78;;;2.03;;
9934;SDS011;5006;41.828;23.478;2023-04-15T00:52:59;2.92;;;1.90;;
9934;SDS011;5006;41.828;23.478;2023-04-15T00:54:05;8.23;;;2.95;;
9934;SDS011;5006;41.828;23.478;2023-04-15T00:55:11;4.53;;;2.70;;
9934;SDS011;5006;41.828;23.478;2023-04-15T00:56:18;7.60;;;4.20;;
9934;SDS011;5006;41.828;23.478;2023-04-15T00:57:25;8.02;;;4.90;;
9934;SDS011;5006;41.828;23.478;2023-04-15T00:58:33;7.38;;;4.43;;
9934;SDS011;5006;41.828;23.478;2023-04-15T00:59:39;5.22;;;4.30;;
9934;SDS011;5006;41.828;23.478;2023-04-15T01:00:45;6.40;;;3.90;;
9934;SDS011;5006;41.828;23.478;2023-04-15T01:01:52;5.28;;;3.90;;
9934;SDS011;5006;41.828;23.478;2023-04-15T01:02:57;4.38;;;3.85;;
9934;SDS011;5006;41.828;23.478;2023-04-15T01:04:05;5.78;;;3.90;;
9934;SDS011;5006;41.828;23.478;2023-04-15T01:05:10;5.35;;;3.67;;
9934;SDS011;5006;41.828;23.478;2023-04-15T01:06:18;5.85;;;4.53;;
9934;SDS011;5006;41.828;23.478;2023-04-15T01:07:24;7.10;;;4.35;;
9934;SDS011;5006;41.828;23.478;2023-04-15T01:08:32;5.25;;;4.57;;
9934;SDS011;5006;41.828;23.478;2023-04-15T01:09:36;6.38;;;4.75;;
9934;SDS011;5006;41.828;23.478;2023-04-15T01:10:42;6.22;;;5.03;;
9934;SDS011;5006;41.828;23.478;2023-04-15T01:11:47;8.13;;;5.35;;
9934;SDS011;5006;41.828;23.478;2023-04-15T01:12:53;6.78;;;5.63;;
9934;SDS011;5006;41.828;23.478;2023-04-15T01:13:58;7.22;;;5.28;;
9934;SDS011;5006;41.828;23.478;2023-04-15T01:15:05;5.38;;;4.53;;
9934;SDS011;5006;41.828;23.478;2023-04-15T01:16:12;5.85;;;4.97;;
9934;SDS011;5006;41.828;23.478;2023-04-15T01:17:20;6.25;;;4.32;;
9934;SDS011;5006;41.828;23.478;2023-04-15T01:18:25;4.85;;;4.30;;
9934;SDS011;5006;41.828;23.478;2023-04-15T01:19:34;4.57;;;3.42;;
9934;SDS011;5006;41.828;23.478;2023-04-15T01:20:40;5.43;;;4.80;;
9934;SDS011;5006;41.828;23.478;2023-04-15T01:21:46;6.40;;;4.72;;
9934;SDS011;5006;41.828;23.478;2023-04-15T01:22:53;5.60;;;5.10;;
9934;SDS011;5006;41.828;23.478;2023-04-15T01:23:59;8.23;;;6.50;;
9934;SDS011;5006;41.828;23.478;2023-04-15T01:25:08;9.00;;;6.97;;
9934;SDS011;5006;41.828;23.478;2023-04-15T01:26:18;8.15;;;6.10;;
9934;SDS011;5006;41.828;23.478;2023-04-15T01:27:23;7.00;;;5.93;;
9934;SDS011;5006;41.828;23.478;2023-04-15T01:28:29;8.63;;;6.80;;
9934;SDS011;5006;41.828;23.478;2023-04-15T01:29:36;7.75;;;6.97;;
9934;SDS011;5006;41.828;23.478;2023-04-15T01:30:43;7.90;;;6.72;;
9934;SDS011;5006;41.828;23.478;2023-04-15T01:31:49;7.22;;;6.50;;
9934;SDS011;5006;41.828;23.478;2023-04-15T01:33:15;6.47;;;5.80;;
9934;SDS011;5006;41.828;23.478;2023-04-15T01:34:41;7.20;;;5.82;;
9934;SDS011;5006;41.828;23.478;2023-04-15T01:36:06;6.88;;;5.20;;
9934;SDS011;5006;41.828;23.478;2023-04-15T01:37:11;6.32;;;4.30;;
9934;SDS011;5006;41.828;23.478;2023-04-15T01:38:17;5.85;;;3.90;;
9934;SDS011;5006;41.828;23.478;2023-04-15T01:39:22;4.50;;;4.10;;
9934;SDS011;5006;41.828;23.478;2023-04-15T01:40:28;4.55;;;3.72;;
9934;SDS011;5006;41.828;23.478;2023-04-15T01:41:37;3.83;;;3.30;;
9934;SDS011;5006;41.828;23.478;2023-04-15T01:42:44;3.97;;;3.53;;
9934;SDS011;5006;41.828;23.478;2023-04-15T01:43:50;5.18;;;3.30;;
9934;SDS011;5006;41.828;23.478;2023-04-15T01:44:56;6.35;;;3.30;;
9934;SDS011;5006;41.828;23.478;2023-04-15T01:46:01;4.65;;;3.33;;
9934;SDS011;5006;41.828;23.478;2023-04-15T01:47:09;5.60;;;3.47;;
9934;SDS011;5006;41.828;23.478;2023-04-15T01:48:16;3.63;;;3.10;;
9934;SDS011;5006;41.828;23.478;2023-04-15T01:49:22;8.40;;;3.08;;
9934;SDS011;5006;41.828;23.478;2023-04-15T01:50:27;3.22;;;2.90;;
9934;SDS011;5006;41.828;23.478;2023-04-15T01:51:33;3.45;;;2.80;;
9934;SDS011;5006;41.828;23.478;2023-04-15T01:52:40;4.53;;;2.80;;
9934;SDS011;5006;41.828;23.478;2023-04-15T01:53:44;4.22;;;2.92;;
9934;SDS011;5006;41.828;23.478;2023-04-15T01:54:50;2.95;;;2.55;;
9934;SDS011;5006;41.828;23.478;2023-04-15T01:55:56;3.22;;;2.70;;
9934;SDS011;5006;41.828;23.478;2023-04-15T01:57:04;2.40;;;2.20;;
9934;SDS011;5006;41.828;23.478;2023-04-15T01:58:08;4.45;;;2.65;;
9934;SDS011;5006;41.828;23.478;2023-04-15T01:59:14;4.35;;;2.50;;
9934;SDS011;5006;41.828;23.478;2023-04-15T02:00:20;3.90;;;2.58;;
9934;SDS011;5006;41.828;23.478;2023-04-15T02:01:27;6.05;;;2.67;;
9934;SDS011;5006;41.828;23.478;2023-04-15T02:02:36;4.68;;;2.38;;
9934;SDS011;5006;41.828;23.478;2023-04-15T02:03:42;3.40;;;2.60;;
9934;SDS011;5006;41.828;23.478;2023-04-15T02:04:49;3.80;;;2.50;;
9934;SDS011;5006;41.828;23.478;2023-04-15T02:05:54;4.82;;;2.40;;
9934;SDS011;5006;41.828;23.478;2023-04-15T02:07:01;3.13;;;2.13;;
9934;SDS011;5006;41.828;23.478;2023-04-15T02:08:07;5.32;;;2.63;;
9934;SDS011;5006;41.828;23.478;2023-04-15T02:09:15;4.00;;;2.20;;
9934;SDS011;5006;41.828;23.478;2023-04-15T02:10:23;3.03;;;2.20;;
9934;SDS011;5006;41.828;23.478;2023-04-15T02:11:29;5.07;;;2.00;;
9934;SDS011;5006;41.828;23.478;2023-04-15T02:12:36;4.57;;;3.00;;
9934;SDS011;5006;41.828;23.478;2023-04-15T02:13:42;157.52;;;12.15;;
9934;SDS011;5006;41.828;23.478;2023-04-15T02:14:47;78.40;;;9.40;;
9934;SDS011;5006;41.828;23.478;2023-04-15T02:15:53;227.10;;;16.08;;
9934;SDS011;5006;41.828;23.478;2023-04-15T02:16:58;85.32;;;10.13;;
9934;SDS011;5006;41.828;23.478;2023-04-15T02:18:10;587.92;;;35.25;;
9934;SDS011;5006;41.828;23.478;2023-04-15T02:19:15;124.07;;;12.80;;
9934;SDS011;5006;41.828;23.478;2023-04-15T02:20:22;118.63;;;14.13;;
9934;SDS011;5006;41.828;23.478;2023-04-15T02:21:27;19.70;;;8.82;;
9934;SDS011;5006;41.828;23.478;2023-04-15T02:22:33;124.13;;;14.20;;
9934;SDS011;5006;41.828;23.478;2023-04-15T02:23:38;301.85;;;22.30;;
9934;SDS011;5006;41.828;23.478;2023-04-15T02:24:44;333.10;;;22.25;;
9934;SDS011;5006;41.828;23.478;2023-04-15T02:25:50;207.23;;;18.00;;
9934;SDS011;5006;41.828;23.478;2023-04-15T02:26:56;133.73;;;15.10;;
9934;SDS011;5006;41.828;23.478;2023-04-15T02:28:03;116.25;;;15.10;;
9934;SDS011;5006;41.828;23.478;2023-04-15T02:29:09;115.72;;;13.52;;
9934;SDS011;5006;41.828;23.478;2023-04-15T02:30:14;418.25;;;24.90;;
9934;SDS011;5006;41.828;23.478;2023-04-15T02:31:20;325.35;;;20.25;;
9934;SDS011;5006;41.828;23.478;2023-04-15T02:32:26;549.55;;;25.17;;
9934;SDS011;5006;41.828;23.478;2023-04-15T02:33:32;494.00;;;24.55;;
9934;SDS011;5006;41.828;23.478;2023-04-15T02:34:38;470.20;;;20.50;;
9934;SDS011;5006;41.828;23.478;2023-04-15T02:35:46;396.25;;;20.08;;
9934;SDS011;5006;41.828;23.478;2023-04-15T02:36:52;331.67;;;17.30;;
9934;SDS011;5006;41.828;23.478;2023-04-15T02:38:00;408.50;;;18.27;;
9934;SDS011;5006;41.828;23.478;2023-04-15T02:39:06;385.65;;;17.60;;
9934;SDS011;5006;41.828;23.478;2023-04-15T02:40:12;260.75;;;14.68;;
9934;SDS011;5006;41.828;23.478;2023-04-15T02:41:18;256.58;;;14.30;;
9934;SDS011;5006;41.828;23.478;2023-04-15T02:42:24;328.30;;;15.55;;
9934;SDS011;5006;41.828;23.478;2023-04-15T02:43:34;253.52;;;15.02;;
9934;SDS011;5006;41.828;23.478;2023-04-15T02:44:40;221.75;;;13.00;;
9934;SDS011;5006;41.828;23.478;2023-04-15T02:45:45;193.05;;;11.20;;
9934;SDS011;5006;41.828;23.478;2023-04-15T02:46:52;163.40;;;10.60;;
9934;SDS011;5006;41.828;23.478;2023-04-15T02:47:58;173.50;;;10.52;;
9934;SDS011;5006;41.828;23.478;2023-04-15T02:49:09;108.57;;;11.13;;
9934;SDS011;5006;41.828;23.478;2023-04-15T02:50:14;84.82;;;11.93;;
9934;SDS011;5006;41.828;23.478;2023-04-15T02:51:20;96.13;;;11.35;;
9934;SDS011;5006;41.828;23.478;2023-04-15T02:52:26;56.55;;;11.48;;
9934;SDS011;5006;41.828;23.478;2023-04-15T02:53:32;16.65;;;8.50;;
9934;SDS011;5006;41.828;23.478;2023-04-15T02:54:38;6.65;;;5.93;;
9934;SDS011;5006;41.828;23.478;2023-04-15T02:55:44;6.00;;;3.85;;
9934;SDS011;5006;41.828;23.478;2023-04-15T02:56:49;3.85;;;3.13;;
9934;SDS011;5006;41.828;23.478;2023-04-15T02:57:58;3.60;;;2.80;;
9934;SDS011;5006;41.828;23.478;2023-04-15T02:59:05;4.35;;;2.78;;
9934;SDS011;5006;41.828;23.478;2023-04-15T03:00:12;4.50;;;3.60;;
9934;SDS011;5006;41.828;23.478;2023-04-15T03:01:20;7.03;;;3.88;;
9934;SDS011;5006;41.828;23.478;2023-04-15T03:02:25;5.22;;;3.67;;
9934;SDS011;5006;41.828;23.478;2023-04-15T03:03:31;5.88;;;3.80;;
9934;SDS011;5006;41.828;23.478;2023-04-15T03:04:37;4.63;;;3.70;;
9934;SDS011;5006;41.828;23.478;2023-04-15T03:05:43;5.93;;;3.90;;
9934;SDS011;5006;41.828;23.478;2023-04-15T03:06:50;4.15;;;3.75;;
9934;SDS011;5006;41.828;23.478;2023-04-15T03:07:55;4.75;;;3.72;;
9934;SDS011;5006;41.828;23.478;2023-04-15T03:09:02;5.20;;;3.97;;
9934;SDS011;5006;41.828;23.478;2023-04-15T03:10:12;5.38;;;3.45;;
9934;SDS011;5006;41.828;23.478;2023-04-15T03:11:18;5.85;;;3.30;;
9934;SDS011;5006;41.828;23.478;2023-04-15T03:12:23;4.90;;;3.58;;
9934;SDS011;5006;41.828;23.478;2023-04-15T03:13:32;6.63;;;3.80;;
9934;SDS011;5006;41.828;23.478;2023-04-15T03:14:45;4.38;;;3.75;;
9934;SDS011;5006;41.828;23.478;2023-04-15T03:15:52;3.75;;;3.33;;
9934;SDS011;5006;41.828;23.478;2023-04-15T03:17:00;3.25;;;2.83;;
9934;SDS011;5006;41.828;23.478;2023-04-15T03:18:06;3.42;;;2.95;;
9934;SDS011;5006;41.828;23.478;2023-04-15T03:19:12;2.90;;;2.58;;
9934;SDS011;5006;41.828;23.478;2023-04-15T03:20:19;5.25;;;3.00;;
9934;SDS011;5006;41.828;23.478;2023-04-15T03:21:26;2.60;;;2.40;;
9934;SDS011;5006;41.828;23.478;2023-04-15T03:22:31;2.58;;;2.38;;
9934;SDS011;5006;41.828;23.478;2023-04-15T03:23:38;5.00;;;2.47;;
9934;SDS011;5006;41.828;23.478;2023-04-15T03:24:44;3.75;;;2.50;;
9934;SDS011;5006;41.828;23.478;2023-04-15T03:25:50;2.83;;;2.05;;
9934;SDS011;5006;41.828;23.478;2023-04-15T03:26:56;4.13;;;2.28;;
9934;SDS011;5006;41.828;23.478;2023-04-15T03:28:02;3.03;;;2.15;;
9934;SDS011;5006;41.828;23.478;2023-04-15T03:29:07;4.15;;;2.50;;
9934;SDS011;5006;41.828;23.478;2023-04-15T03:30:14;3.33;;;2.38;;
9934;SDS011;5006;41.828;23.478;2023-04-15T03:31:20;2.30;;;2.05;;
9934;SDS011;5006;41.828;23.478;2023-04-15T03:32:26;3.90;;;2.25;;
9934;SDS011;5006;41.828;23.478;2023-04-15T03:33:31;3.47;;;2.13;;
9934;SDS011;5006;41.828;23.478;2023-04-15T03:34:38;3.30;;;2.17;;
9934;SDS011;5006;41.828;23.478;2023-04-15T03:35:43;3.60;;;2.25;;
9934;SDS011;5006;41.828;23.478;2023-04-15T03:36:49;4.18;;;2.15;;
9934;SDS011;5006;41.828;23.478;2023-04-15T03:37:55;3.15;;;2.05;;
9934;SDS011;5006;41.828;23.478;2023-04-15T03:39:01;4.65;;;2.15;;
9934;SDS011;5006;41.828;23.478;2023-04-15T03:40:08;4.25;;;2.20;;
9934;SDS011;5006;41.828;23.478;2023-04-15T03:41:13;4.75;;;2.63;;
9934;SDS011;5006;41.828;23.478;2023-04-15T03:42:19;4.55;;;2.90;;
9934;SDS011;5006;41.828;23.478;2023-04-15T03:43:26;5.65;;;2.70;;
9934;SDS011;5006;41.828;23.478;2023-04-15T03:44:31;3.75;;;2.03;;
9934;SDS011;5006;41.828;23.478;2023-04-15T03:45:39;2.75;;;2.00;;
9934;SDS011;5006;41.828;23.478;2023-04-15T03:46:45;2.50;;;2.10;;
9934;SDS011;5006;41.828;23.478;2023-04-15T03:47:50;5.45;;;2.20;;
9934;SDS011;5006;41.828;23.478;2023-04-15T03:48:57;3.97;;;1.88;;
9934;SDS011;5006;41.828;23.478;2023-04-15T03:50:04;4.18;;;2.20;;
9934;SDS011;5006;41.828;23.478;2023-04-15T03:51:10;2.58;;;2.10;;
9934;SDS011;5006;41.828;23.478;2023-04-15T03:52:16;3.63;;;1.98;;
9934;SDS011;5006;41.828;23.478;2023-04-15T03:53:22;3.85;;;2.05;;
9934;SDS011;5006;41.828;23.478;2023-04-15T03:54:27;2.50;;;1.90;;
9934;SDS011;5006;41.828;23.478;2023-04-15T03:55:33;3.97;;;2.20;;
9934;SDS011;5006;41.828;23.478;2023-04-15T03:56:38;3.38;;;2.10;;
9934;SDS011;5006;41.828;23.478;2023-04-15T03:57:44;5.82;;;2.28;;
9934;SDS011;5006;41.828;23.478;2023-04-15T03:58:49;3.40;;;1.90;;
9934;SDS011;5006;41.828;23.478;2023-04-15T03:59:56;5.10;;;2.17;;
9934;SDS011;5006;41.828;23.478;2023-04-15T04:01:01;2.38;;;1.88;;
9934;SDS011;5006;41.828;23.478;2023-04-15T04:02:07;3.05;;;1.88;;
9934;SDS011;5006;41.828;23.478;2023-04-15T04:03:12;3.92;;;2.13;;
9934;SDS011;5006;41.828;23.478;2023-04-15T04:04:19;3.30;;;2.00;;
9934;SDS011;5006;41.828;23.478;2023-04-15T04:05:25;2.78;;;1.95;;
9934;SDS011;5006;41.828;23.478;2023-04-15T04:06:31;3.83;;;2.00;;
9934;SDS011;5006;41.828;23.478;2023-04-15T04:07:36;2.90;;;2.15;;
9934;SDS011;5006;41.828;23.478;2023-04-15T04:08:42;4.28;;;2.00;;
9934;SDS011;5006;41.828;23.478;2023-04-15T04:09:47;3.75;;;1.70;;
9934;SDS011;5006;41.828;23.478;2023-04-15T04:10:53;3.00;;;2.00;;
9934;SDS011;5006;41.828;23.478;2023-04-15T04:11:59;5.07;;;2.22;;
9934;SDS011;5006;41.828;23.478;2023-04-15T04:13:05;3.85;;;1.80;;
9934;SDS011;5006;41.828;23.478;2023-04-15T04:14:11;3.03;;;2.05;;
9934;SDS011;5006;41.828;23.478;2023-04-15T04:15:16;2.95;;;2.03;;
9934;SDS011;5006;41.828;23.478;2023-04-15T04:16:24;4.93;;;2.10;;
9934;SDS011;5006;41.828;23.478;2023-04-15T04:17:30;3.35;;;2.00;;
9934;SDS011;5006;41.828;23.478;2023-04-15T04:18:35;2.67;;;1.90;;
9934;SDS011;5006;41.828;23.478;2023-04-15T04:19:42;2.67;;;2.00;;
9934;SDS011;5006;41.828;23.478;2023-04-15T04:20:46;3.47;;;2.25;;
9934;SDS011;5006;41.828;23.478;2023-04-15T04:21:53;3.08;;;1.83;;
9934;SDS011;5006;41.828;23.478;2023-04-15T04:22:57;4.57;;;2.05;;
9934;SDS011;5006;41.828;23.478;2023-04-15T04:24:04;3.67;;;1.80;;
9934;SDS011;5006;41.828;23.478;2023-04-15T04:25:09;25.98;;;20.08;;
9934;SDS011;5006;41.828;23.478;2023-04-15T04:26:16;19.20;;;15.23;;
9934;SDS011;5006;41.828;23.478;2023-04-15T04:27:20;22.83;;;17.50;;
9934;SDS011;5006;41.828;23.478;2023-04-15T04:28:26;25.77;;;20.58;;
9934;SDS011;5006;41.828;23.478;2023-04-15T04:29:31;26.60;;;19.02;;
9934;SDS011;5006;41.828;23.478;2023-04-15T04:30:37;14.15;;;10.70;;
9934;SDS011;5006;41.828;23.478;2023-04-15T04:31:46;16.20;;;13.88;;
9934;SDS011;5006;41.828;23.478;2023-04-15T04:32:51;43.70;;;38.97;;
9934;SDS011;5006;41.828;23.478;2023-04-15T04:33:58;53.45;;;44.60;;
9934;SDS011;5006;41.828;23.478;2023-04-15T04:35:04;59.28;;;53.00;;
9934;SDS011;5006;41.828;23.478;2023-04-15T04:36:11;68.97;;;61.80;;
9934;SDS011;5006;41.828;23.478;2023-04-15T04:37:16;55.78;;;50.42;;
9934;SDS011;5006;41.828;23.478;2023-04-15T04:38:22;42.50;;;37.95;;
9934;SDS011;5006;41.828;23.478;2023-04-15T04:39:27;34.00;;;30.48;;
9934;SDS011;5006;41.828;23.478;2023-04-15T04:40:32;34.53;;;29.40;;
9934;SDS011;5006;41.828;23.478;2023-04-15T04:41:38;31.63;;;27.85;;
9934;SDS011;5006;41.828;23.478;2023-04-15T04:42:44;32.28;;;28.77;;
9934;SDS011;5006;41.828;23.478;2023-04-15T04:43:49;39.53;;;26.83;;
9934;SDS011;5006;41.828;23.478;2023-04-15T04:44:54;82.80;;;26.50;;
9934;SDS011;5006;41.828;23.478;2023-04-15T04:46:00;117.05;;;30.80;;
9934;SDS011;5006;41.828;23.478;2023-04-15T04:47:08;81.22;;;28.95;;
9934;SDS011;5006;41.828;23.478;2023-04-15T04:48:13;109.07;;;29.33;;
9934;SDS011;5006;41.828;23.478;2023-04-15T04:49:20;38.72;;;27.15;;
9934;SDS011;5006;41.828;23.478;2023-04-15T04:50:26;99.50;;;21.63;;
9934;SDS011;5006;41.828;23.478;2023-04-15T04:51:31;53.72;;;21.23;;
9934;SDS011;5006;41.828;23.478;2023-04-15T04:52:36;82.60;;;18.60;;
9934;SDS011;5006;41.828;23.478;2023-04-15T04:53:42;136.45;;;19.15;;
9934;SDS011;5006;41.828;23.478;2023-04-15T04:54:47;121.45;;;17.40;;
9934;SDS011;5006;41.828;23.478;2023-04-15T04:55:53;208.80;;;20.13;;
9934;SDS011;5006;41.828;23.478;2023-04-15T04:56:58;220.68;;;19.98;;
9934;SDS011;5006;41.828;23.478;2023-04-15T04:58:04;219.00;;;17.58;;
9934;SDS011;5006;41.828;23.478;2023-04-15T04:59:10;178.98;;;16.92;;
9934;SDS011;5006;41.828;23.478;2023-04-15T05:00:17;176.13;;;18.73;;
9934;SDS011;5006;41.828;23.478;2023-04-15T05:01:22;159.20;;;19.13;;
9934;SDS011;5006;41.828;23.478;2023-04-15T05:02:31;320.27;;;24.75;;
9934;SDS011;5006;41.828;23.478;2023-04-15T05:03:36;123.30;;;16.20;;
9934;SDS011;5006;41.828;23.478;2023-04-15T05:04:44;103.55;;;18.75;;
9934;SDS011;5006;41.828;23.478;2023-04-15T05:05:50;134.57;;;18.83;;
9934;SDS011;5006;41.828;23.478;2023-04-15T05:06:55;155.32;;;21.95;;
9934;SDS011;5006;41.828;23.478;2023-04-15T05:08:00;123.38;;;19.33;;
9934;SDS011;5006;41.828;23.478;2023-04-15T05:09:06;168.07;;;19.65;;
9934;SDS011;5006;41.828;23.478;2023-04-15T05:10:13;127.50;;;18.98;;
9934;SDS011;5006;41.828;23.478;2023-04-15T05:11:18;126.93;;;19.40;;
9934;SDS011;5006;41.828;23.478;2023-04-15T05:12:25;148.27;;;21.67;;
9934;SDS011;5006;41.828;23.478;2023-04-15T05:13:29;151.98;;;18.50;;
9934;SDS011;5006;41.828;23.478;2023-04-15T05:14:36;172.60;;;20.08;;
9934;SDS011;5006;41.828;23.478;2023-04-15T05:15:41;140.00;;;20.02;;
9934;SDS011;5006;41.828;23.478;2023-04-15T05:16:46;83.20;;;17.40;;
9934;SDS011;5006;41.828;23.478;2023-04-15T05:17:53;83.95;;;18.27;;
9934;SDS011;5006;41.828;23.478;2023-04-15T05:18:59;173.15;;;33.03;;
9934;SDS011;5006;41.828;23.478;2023-04-15T05:20:05;126.18;;;40.90;;
9934;SDS011;5006;41.828;23.478;2023-04-15T05:21:13;272.05;;;45.65;;
9934;SDS011;5006;41.828;23.478;2023-04-15T05:22:18;320.20;;;48.75;;
9934;SDS011;5006;41.828;23.478;2023-04-15T05:23:24;217.00;;;40.67;;
9934;SDS011;5006;41.828;23.478;2023-04-15T05:24:29;167.07;;;40.45;;
9934;SDS011;5006;41.828;23.478;2023-04-15T05:25:35;144.77;;;33.42;;
9934;SDS011;5006;41.828;23.478;2023-04-15T05:26:41;183.55;;;34.92;;
9934;SDS011;5006;41.828;23.478;2023-04-15T05:27:46;242.50;;;36.08;;
9934;SDS011;5006;41.828;23.478;2023-04-15T05:28:52;133.23;;;27.85;;
9934;SDS011;5006;41.828;23.478;2023-04-15T05:29:58;130.52;;;28.67;;
9934;SDS011;5006;41.828;23.478;2023-04-15T05:31:04;90.53;;;28.45;;
9934;SDS011;5006;41.828;23.478;2023-04-15T05:32:11;114.30;;;32.95;;
9934;SDS011;5006;41.828;23.478;2023-04-15T05:33:17;157.85;;;34.15;;
9934;SDS011;5006;41.828;23.478;2023-04-15T05:34:22;115.40;;;30.50;;
9934;SDS011;5006;41.828;23.478;2023-04-15T05:35:29;109.93;;;29.60;;
9934;SDS011;5006;41.828;23.478;2023-04-15T05:36:35;80.05;;;28.13;;
9934;SDS011;5006;41.828;23.478;2023-04-15T05:37:40;62.70;;;25.67;;
9934;SDS011;5006;41.828;23.478;2023-04-15T05:38:46;50.05;;;24.42;;
9934;SDS011;5006;41.828;23.478;2023-04-15T05:39:52;64.70;;;22.98;;
9934;SDS011;5006;41.828;23.478;2023-04-15T05:40:58;56.65;;;22.65;;
9934;SDS011;5006;41.828;23.478;2023-04-15T05:42:03;55.00;;;22.27;;
9934;SDS011;5006;41.828;23.478;2023-04-15T05:43:11;47.60;;;21.65;;
9934;SDS011;5006;41.828;23.478;2023-04-15T05:44:16;42.25;;;21.40;;
9934;SDS011;5006;41.828;23.478;2023-04-15T05:45:21;49.97;;;21.73;;
9934;SDS011;5006;41.828;23.478;2023-04-15T05:46:28;51.33;;;23.33;;
9934;SDS011;5006;41.828;23.478;2023-04-15T05:47:34;66.97;;;25.20;;
9934;SDS011;5006;41.828;23.478;2023-04-15T05:48:42;46.22;;;24.92;;
9934;SDS011;5006;41.828;23.478;2023-04-15T05:49:47;27.15;;;17.02;;
9934;SDS011;5006;41.828;23.478;2023-04-15T05:50:52;22.35;;;14.95;;
9934;SDS011;5006;41.828;23.478;2023-04-15T05:51:58;25.00;;;13.93;;
9934;SDS011;5006;41.828;23.478;2023-04-15T05:53:05;21.48;;;13.93;;
9934;SDS011;5006;41.828;23.478;2023-04-15T05:54:11;14.85;;;12.85;;
9934;SDS011;5006;41.828;23.478;2023-04-15T05:55:16;17.77;;;12.93;;
9934;SDS011;5006;41.828;23.478;2023-04-15T05:56:22;16.95;;;13.27;;
9934;SDS011;5006;41.828;23.478;2023-04-15T05:57:28;12.23;;;10.82;;
9934;SDS011;5006;41.828;23.478;2023-04-15T05:58:34;13.10;;;10.25;;
9934;SDS011;5006;41.828;23.478;2023-04-15T05:59:39;13.00;;;10.35;;
9934;SDS011;5006;41.828;23.478;2023-04-15T06:00:45;11.80;;;9.85;;
9934;SDS011;5006;41.828;23.478;2023-04-15T06:01:51;12.38;;;10.65;;
9934;SDS011;5006;41.828;23.478;2023-04-15T06:02:57;13.00;;;10.88;;
9934;SDS011;5006;41.828;23.478;2023-04-15T06:04:05;12.77;;;11.02;;
9934;SDS011;5006;41.828;23.478;2023-04-15T06:05:11;11.50;;;10.30;;
9934;SDS011;5006;41.828;23.478;2023-04-15T06:06:16;11.02;;;9.82;;
9934;SDS011;5006;41.828;23.478;2023-04-15T06:07:23;9.48;;;8.32;;
9934;SDS011;5006;41.828;23.478;2023-04-15T06:08:29;8.52;;;7.53;;
9934;SDS011;5006;41.828;23.478;2023-04-15T06:09:36;13.27;;;11.00;;
9934;SDS011;5006;41.828;23.478;2023-04-15T06:10:41;11.27;;;10.07;;
9934;SDS011;5006;41.828;23.478;2023-04-15T06:11:47;11.43;;;9.75;;
9934;SDS011;5006;41.828;23.478;2023-04-15T06:12:53;14.25;;;9.25;;
9934;SDS011;5006;41.828;23.478;2023-04-15T06:13:59;11.52;;;9.77;;
9934;SDS011;5006;41.828;23.478;2023-04-15T06:15:04;11.43;;;9.13;;
9934;SDS011;5006;41.828;23.478;2023-04-15T06:16:14;10.15;;;8.93;;
9934;SDS011;5006;41.828;23.478;2023-04-15T06:17:21;12.05;;;9.85;;
9934;SDS011;5006;41.828;23.478;2023-04-15T06:18:28;14.82;;;11.40;;
9934;SDS011;5006;41.828;23.478;2023-04-15T06:19:35;17.85;;;12.65;;
9934;SDS011;5006;41.828;23.478;2023-04-15T06:20:41;16.90;;;12.70;;
9934;SDS011;5006;41.828;23.478;2023-04-15T06:21:46;19.20;;;15.27;;
9934;SDS011;5006;41.828;23.478;2023-04-15T06:22:53;23.80;;;18.70;;
9934;SDS011;5006;41.828;23.478;2023-04-15T06:23:59;22.88;;;20.42;;
9934;SDS011;5006;41.828;23.478;2023-04-15T06:25:07;28.60;;;21.75;;
9934;SDS011;5006;41.828;23.478;2023-04-15T06:26:13;32.58;;;22.90;;
9934;SDS011;5006;41.828;23.478;2023-04-15T06:27:20;26.25;;;21.13;;
9934;SDS011;5006;41.828;23.478;2023-04-15T06:28:26;26.38;;;20.73;;
9934;SDS011;5006;41.828;23.478;2023-04-15T06:29:33;26.38;;;22.50;;
9934;SDS011;5006;41.828;23.478;2023-04-15T06:30:38;28.45;;;23.02;;
9934;SDS011;5006;41.828;23.478;2023-04-15T06:31:46;29.40;;;24.25;;
9934;SDS011;5006;41.828;23.478;2023-04-15T06:32:51;27.60;;;21.85;;
9934;SDS011;5006;41.828;23.478;2023-04-15T06:33:57;28.30;;;20.98;;
9934;SDS011;5006;41.828;23.478;2023-04-15T06:35:06;25.17;;;21.17;;
9934;SDS011;5006;41.828;23.478;2023-04-15T06:36:12;27.35;;;22.40;;
9934;SDS011;5006;41.828;23.478;2023-04-15T06:37:19;29.83;;;24.33;;
9934;SDS011;5006;41.828;23.478;2023-04-15T06:38:23;34.58;;;28.00;;
9934;SDS011;5006;41.828;23.478;2023-04-15T06:39:30;35.17;;;28.70;;
9934;SDS011;5006;41.828;23.478;2023-04-15T06:40:36;33.85;;;28.63;;